createdAt,value
2022-11-30T00:01:39.902Z,0.57
2022-11-30T00:04:09.587Z,0.56
2022-11-30T00:06:37.725Z,0.48
2022-11-30T00:09:06.209Z,0.50
2022-11-30T00:11:34.397Z,0.56
2022-11-30T00:14:04.270Z,0.52
2022-11-30T00:16:35.328Z,0.58
2022-11-30T00:19:04.613Z,0.53
2022-11-30T00:21:34.098Z,0.58
2022-11-30T00:24:02.977Z,0.55
2022-11-30T00:26:33.404Z,0.56
2022-11-30T00:29:03.392Z,0.54
2022-11-30T00:31:31.896Z,0.54
2022-11-30T00:34:00.386Z,0.54
2022-11-30T00:36:28.648Z,0.52
2022-11-30T00:38:57.323Z,0.49
2022-11-30T00:41:26.552Z,0.51
2022-11-30T00:43:55.052Z,0.47
2022-11-30T00:46:24.553Z,0.48
2022-11-30T00:48:52.967Z,0.44
2022-11-30T00:51:21.229Z,0.49
2022-11-30T00:53:49.918Z,0.54
2022-11-30T00:56:18.052Z,0.34
2022-11-30T00:58:46.569Z,0.53
2022-11-30T01:01:14.691Z,0.51
2022-11-30T01:03:44.523Z,0.52
2022-11-30T01:06:13.068Z,0.52
2022-11-30T01:08:41.791Z,0.27
2022-11-30T01:11:15.761Z,0.50
2022-11-30T01:13:44.231Z,0.35
2022-11-30T01:16:15.720Z,0.53
2022-11-30T01:18:49.065Z,0.51
2022-11-30T01:21:22.973Z,0.53
2022-11-30T01:23:51.664Z,0.52
2022-11-30T01:26:20.145Z,0.34
2022-11-30T01:28:51.920Z,0.53
2022-11-30T01:31:21.380Z,0.54
2022-11-30T01:34:03.608Z,0.53
2022-11-30T01:36:32.003Z,0.50
2022-11-30T01:39:03.204Z,0.35
2022-11-30T01:41:33.381Z,0.52
2022-11-30T01:44:35.376Z,0.51
2022-11-30T01:47:06.976Z,0.49
2022-11-30T01:49:41.398Z,0.49
2022-11-30T01:52:14.580Z,0.54
2022-11-30T01:54:46.691Z,0.57
2022-11-30T01:57:25.343Z,0.54
2022-11-30T01:59:58.122Z,0.55
2022-11-30T02:02:33.921Z,0.53
2022-11-30T02:05:07.388Z,0.52
2022-11-30T02:07:38.763Z,0.50
2022-11-30T02:10:08.677Z,0.20
2022-11-30T02:12:46.107Z,0.49
2022-11-30T02:15:22.434Z,0.49
2022-11-30T02:17:59.189Z,0.41
2022-11-30T02:20:50.460Z,0.51
2022-11-30T02:23:52.450Z,0.50
2022-11-30T02:26:35.997Z,0.49
2022-11-30T02:29:14.218Z,0.51
2022-11-30T02:31:48.219Z,0.51
2022-11-30T02:34:18.911Z,0.51
2022-11-30T02:36:48.645Z,0.52
2022-11-30T02:39:17.105Z,0.53
2022-11-30T02:41:45.720Z,0.52
2022-11-30T02:44:15.732Z,0.44
2022-11-30T02:47:04.996Z,0.41
2022-11-30T02:49:38.430Z,0.48
2022-11-30T02:52:09.026Z,0.47
2022-11-30T02:54:37.403Z,0.49
2022-11-30T02:57:06.179Z,0.48
2022-11-30T02:59:38.253Z,0.45
2022-11-30T03:02:07.003Z,0.45
2022-11-30T03:04:35.284Z,0.45
2022-11-30T03:07:04.095Z,0.08
2022-11-30T03:09:32.241Z,0.48
2022-11-30T03:12:03.280Z,0.50
2022-11-30T03:14:31.459Z,0.46
2022-11-30T03:17:03.632Z,0.43
2022-11-30T03:19:31.841Z,0.48
2022-11-30T03:22:00.252Z,0.45
2022-11-30T03:24:29.068Z,0.44
2022-11-30T03:26:57.660Z,0.28
2022-11-30T03:29:25.803Z,0.43
2022-11-30T03:31:54.295Z,0.39
2022-11-30T03:34:26.466Z,0.42
2022-11-30T03:36:55.180Z,0.43
2022-11-30T03:39:23.588Z,0.44
2022-11-30T03:41:52.258Z,0.39
2022-11-30T03:44:20.682Z,0.38
2022-11-30T03:46:50.787Z,0.40
2022-11-30T03:49:20.141Z,0.38
2022-11-30T03:51:50.086Z,0.24
2022-11-30T03:54:18.196Z,0.41
2022-11-30T03:56:46.810Z,0.43
2022-11-30T03:59:15.406Z,0.40
2022-11-30T04:01:44.122Z,0.40
2022-11-30T04:04:12.598Z,0.37
2022-11-30T04:06:41.818Z,0.38
2022-11-30T04:09:12.109Z,0.33
2022-11-30T04:11:40.654Z,0.36
2022-11-30T04:14:09.054Z,0.39
2022-11-30T04:16:37.517Z,0.36
2022-11-30T04:19:05.851Z,0.38
2022-11-30T04:21:34.348Z,0.31
2022-11-30T04:24:02.577Z,0.30
2022-11-30T04:26:32.399Z,0.32
2022-11-30T04:29:04.345Z,0.36
2022-11-30T04:31:33.198Z,0.39
2022-11-30T04:34:01.381Z,0.40
2022-11-30T04:36:29.678Z,0.36
2022-11-30T04:38:58.031Z,0.36
2022-11-30T04:41:26.589Z,0.33
2022-11-30T04:43:56.092Z,0.32
2022-11-30T04:46:24.499Z,0.34
2022-11-30T04:48:52.962Z,0.33
2022-11-30T04:51:21.366Z,0.34
2022-11-30T04:53:49.408Z,0.25
2022-11-30T04:56:17.769Z,0.39
2022-11-30T04:58:46.157Z,0.42
2022-11-30T05:01:15.954Z,0.35
2022-11-30T05:03:44.661Z,0.33
2022-11-30T05:06:13.010Z,0.34
2022-11-30T05:08:41.171Z,0.33
2022-11-30T05:11:09.550Z,-0.04
2022-11-30T05:13:37.854Z,0.29
2022-11-30T05:16:06.837Z,0.21
2022-11-30T05:18:36.252Z,0.32
2022-11-30T05:21:04.816Z,0.32
2022-11-30T05:23:33.057Z,0.30
2022-11-30T05:26:03.946Z,0.31
2022-11-30T05:28:32.070Z,0.24
2022-11-30T05:31:05.183Z,0.03
2022-11-30T05:33:33.961Z,0.30
2022-11-30T05:36:10.227Z,0.32
2022-11-30T05:38:39.217Z,0.33
2022-11-30T05:41:07.664Z,0.28
2022-11-30T05:43:35.753Z,0.23
2022-11-30T05:46:05.958Z,0.05
2022-11-30T05:48:34.446Z,0.28
2022-11-30T05:51:08.229Z,0.32
2022-11-30T05:53:36.859Z,0.34
2022-11-30T05:56:05.703Z,0.32
2022-11-30T05:58:34.328Z,0.33
2022-11-30T06:01:03.018Z,0.30
2022-11-30T06:03:33.593Z,0.31
2022-11-30T06:06:02.560Z,0.22
2022-11-30T06:08:32.053Z,0.20
2022-11-30T06:11:02.200Z,0.25
2022-11-30T06:13:32.671Z,0.14
2022-11-30T06:16:01.373Z,0.33
2022-11-30T06:18:29.872Z,0.28
2022-11-30T06:21:01.783Z,0.23
2022-11-30T06:23:31.738Z,0.27
2022-11-30T06:26:00.433Z,0.31
2022-11-30T06:28:28.710Z,0.38
2022-11-30T06:30:59.944Z,0.17
2022-11-30T06:33:28.454Z,0.42
2022-11-30T06:35:57.164Z,0.41
2022-11-30T06:38:25.976Z,0.18
2022-11-30T06:40:56.080Z,0.45
2022-11-30T06:43:24.229Z,0.46
2022-11-30T06:45:52.889Z,0.44
2022-11-30T06:48:23.103Z,0.26
2022-11-30T06:50:51.516Z,0.44
2022-11-30T06:53:19.830Z,0.41
2022-11-30T06:55:48.731Z,0.40
2022-11-30T06:58:18.499Z,0.39
2022-11-30T07:00:47.039Z,0.42
2022-11-30T07:03:15.805Z,0.39
2022-11-30T07:05:49.764Z,0.35
2022-11-30T07:08:18.706Z,0.39
2022-11-30T07:10:48.618Z,0.40
2022-11-30T07:13:20.124Z,0.43
2022-11-30T07:15:48.544Z,0.50
2022-11-30T07:18:16.632Z,0.38
2022-11-30T07:20:45.565Z,0.49
2022-11-30T07:23:30.997Z,0.43
2022-11-30T07:26:09.445Z,0.45
2022-11-30T07:28:40.746Z,0.31
2022-11-30T07:31:21.023Z,0.49
2022-11-30T07:33:50.178Z,0.51
2022-11-30T07:36:19.814Z,0.46
2022-11-30T07:38:48.516Z,0.42
2022-11-30T07:41:17.534Z,0.51
2022-11-30T07:43:50.678Z,0.34
2022-11-30T07:46:19.914Z,0.32
2022-11-30T07:48:48.520Z,0.26
2022-11-30T07:51:20.244Z,0.57
2022-11-30T07:53:48.628Z,0.60
2022-11-30T07:56:18.854Z,0.38
2022-11-30T07:58:47.502Z,0.55
2022-11-30T08:01:19.466Z,0.54
2022-11-30T08:03:48.073Z,0.58
2022-11-30T08:06:20.296Z,0.54
2022-11-30T08:08:50.467Z,0.59
2022-11-30T08:11:22.075Z,0.63
2022-11-30T08:13:50.287Z,0.39
2022-11-30T08:16:22.335Z,0.58
2022-11-30T08:18:50.646Z,0.59
2022-11-30T08:21:22.399Z,0.56
2022-11-30T08:23:52.667Z,0.62
2022-11-30T08:26:23.492Z,0.67
2022-11-30T08:28:53.165Z,0.51
2022-11-30T08:31:25.512Z,0.62
2022-11-30T08:33:57.617Z,0.62
2022-11-30T08:36:27.617Z,0.67
2022-11-30T08:38:55.930Z,0.67
2022-11-30T08:41:26.407Z,0.59
2022-11-30T08:43:54.941Z,0.71
2022-11-30T08:49:23.565Z,0.78
2022-11-30T08:54:45.682Z,0.50
2022-11-30T08:57:15.594Z,0.63
2022-11-30T08:59:43.745Z,0.63
2022-11-30T09:02:17.493Z,0.73
2022-11-30T09:04:47.375Z,0.75
2022-11-30T09:07:16.079Z,0.75
2022-11-30T09:09:44.595Z,0.79
2022-11-30T09:12:13.007Z,0.81
2022-11-30T09:14:41.278Z,0.81
2022-11-30T09:17:09.953Z,0.85
2022-11-30T09:19:40.976Z,0.68
2022-11-30T09:22:10.334Z,0.87
2022-11-30T09:24:38.554Z,0.90
2022-11-30T09:27:07.145Z,0.93
2022-11-30T09:29:35.347Z,0.90
2022-11-30T09:32:03.733Z,0.90
2022-11-30T09:34:31.829Z,0.91
2022-11-30T09:37:01.694Z,0.79
2022-11-30T09:39:29.865Z,0.76
2022-11-30T09:42:26.391Z,0.84
2022-11-30T09:45:02.169Z,1.02
2022-11-30T09:47:47.163Z,0.85
2022-11-30T09:50:19.526Z,1.03
2022-11-30T09:52:52.559Z,1.12
2022-11-30T09:55:28.285Z,0.90
2022-11-30T09:58:02.365Z,1.16
2022-11-30T10:00:31.232Z,0.57
2022-11-30T10:03:03.931Z,1.20
2022-11-30T10:05:46.565Z,1.32
2022-11-30T10:08:32.548Z,1.24
2022-11-30T10:11:34.021Z,1.31
2022-11-30T10:14:18.272Z,1.31
2022-11-30T10:16:55.354Z,0.93
2022-11-30T10:19:34.260Z,1.23
2022-11-30T10:22:14.637Z,1.18
2022-11-30T10:24:59.599Z,0.99
2022-11-30T10:27:42.083Z,1.18
2022-11-30T10:30:16.935Z,1.18
2022-11-30T10:32:49.083Z,1.20
2022-11-30T10:35:23.817Z,1.24
2022-11-30T10:37:53.309Z,1.25
2022-11-30T10:40:36.069Z,1.30
2022-11-30T10:43:14.596Z,1.26
2022-11-30T10:45:49.366Z,1.23
2022-11-30T10:48:24.974Z,1.06
2022-11-30T10:50:54.519Z,1.21
2022-11-30T10:53:23.923Z,1.13
2022-11-30T10:56:01.561Z,1.20
2022-11-30T10:58:34.587Z,1.05
2022-11-30T11:01:06.104Z,1.20
2022-11-30T11:03:35.279Z,1.21
2022-11-30T11:06:12.879Z,1.20
2022-11-30T11:08:45.479Z,1.24
2022-11-30T11:11:38.997Z,1.12
2022-11-30T11:14:16.969Z,1.25
2022-11-30T11:16:57.766Z,1.22
2022-11-30T11:19:37.616Z,1.22
2022-11-30T11:22:09.017Z,1.20
2022-11-30T11:24:37.300Z,1.19
2022-11-30T11:27:07.115Z,1.30
2022-11-30T11:29:36.724Z,1.26
2022-11-30T11:32:26.801Z,0.83
2022-11-30T11:34:55.436Z,1.32
2022-11-30T11:37:28.694Z,1.28
2022-11-30T11:40:10.188Z,1.15
2022-11-30T11:42:48.293Z,1.22
2022-11-30T11:45:21.425Z,1.01
2022-11-30T11:47:59.740Z,1.21
2022-11-30T11:51:04.949Z,1.19
2022-11-30T11:53:25.753Z,1.20
2022-11-30T11:56:00.635Z,0.90
2022-11-30T11:58:42.725Z,1.36
2022-11-30T12:01:39.284Z,0.85
2022-11-30T12:04:21.713Z,1.15
2022-11-30T12:06:53.966Z,1.26
2022-11-30T12:09:29.146Z,1.04
2022-11-30T12:11:57.490Z,1.38
2022-11-30T12:14:28.617Z,1.43
2022-11-30T12:17:11.059Z,1.57
2022-11-30T12:19:47.947Z,1.64
2022-11-30T12:22:34.223Z,1.52
2022-11-30T12:25:21.349Z,1.53
2022-11-30T12:27:59.168Z,1.50
2022-11-30T12:30:38.232Z,1.46
2022-11-30T12:33:15.356Z,1.47
2022-11-30T12:36:00.882Z,1.33
2022-11-30T12:38:40.175Z,1.37
2022-11-30T12:41:26.605Z,1.09
2022-11-30T12:44:04.265Z,1.34
2022-11-30T12:46:42.350Z,1.35
2022-11-30T12:49:26.889Z,1.28
2022-11-30T12:52:07.664Z,1.27
2022-11-30T12:54:43.352Z,1.36
2022-11-30T12:57:19.032Z,1.31
2022-11-30T13:00:00.128Z,1.22
2022-11-30T13:03:03.379Z,1.13
2022-11-30T13:05:38.506Z,1.18
2022-11-30T13:08:14.949Z,1.19
2022-11-30T13:10:47.528Z,1.07
2022-11-30T13:13:19.652Z,1.00
2022-11-30T13:15:51.064Z,1.15
2022-11-30T13:18:23.324Z,1.13
2022-11-30T13:20:57.946Z,1.13
2022-11-30T13:23:36.177Z,1.03
2022-11-30T13:26:10.309Z,1.08
2022-11-30T13:28:54.944Z,1.08
2022-11-30T13:31:27.148Z,0.83
2022-11-30T13:34:01.424Z,0.88
2022-11-30T13:36:36.161Z,1.07
2022-11-30T13:39:29.753Z,1.03
2022-11-30T13:42:17.741Z,0.98
2022-11-30T13:44:46.791Z,0.94
2022-11-30T13:47:20.839Z,0.96
2022-11-30T13:49:57.450Z,0.97
2022-11-30T13:52:59.313Z,1.00
2022-11-30T13:55:51.834Z,0.97
2022-11-30T13:58:28.541Z,0.57
2022-11-30T14:01:21.591Z,0.97
2022-11-30T14:04:31.883Z,0.97
2022-11-30T14:07:02.264Z,0.86
2022-11-30T14:09:59.848Z,0.85
2022-11-30T14:13:01.337Z,0.84
2022-11-30T14:15:56.530Z,0.74
2022-11-30T14:18:32.589Z,0.83
2022-11-30T14:21:04.153Z,0.89
2022-11-30T14:23:48.862Z,0.87
2022-11-30T14:26:20.956Z,0.80
2022-11-30T14:28:58.538Z,0.66
2022-11-30T14:31:28.697Z,0.81
2022-11-30T14:34:01.837Z,0.57
2022-11-30T14:36:36.690Z,0.78
2022-11-30T14:39:06.589Z,0.79
2022-11-30T14:41:34.655Z,0.78
2022-11-30T14:44:07.747Z,0.82
2022-11-30T14:46:36.566Z,0.58
2022-11-30T14:49:07.071Z,0.57
2022-11-30T14:51:35.272Z,0.62
2022-11-30T14:54:15.824Z,0.87
2022-11-30T14:56:49.432Z,0.76
2022-11-30T14:59:33.046Z,0.81
2022-11-30T15:02:05.498Z,0.83
2022-11-30T15:04:37.089Z,0.83
2022-11-30T15:07:05.428Z,0.81
2022-11-30T15:09:35.896Z,0.82
2022-11-30T15:12:04.143Z,0.67
2022-11-30T15:14:32.712Z,0.80
2022-11-30T15:17:00.801Z,0.76
2022-11-30T15:19:31.027Z,0.70
2022-11-30T15:22:00.482Z,0.83
2022-11-30T15:24:29.942Z,0.82
2022-11-30T15:27:10.227Z,0.81
2022-11-30T15:29:44.003Z,0.60
2022-11-30T15:32:20.424Z,0.80
2022-11-30T15:34:56.073Z,0.75
2022-11-30T15:37:31.137Z,0.71
2022-11-30T15:40:01.830Z,0.79
2022-11-30T15:42:40.068Z,0.79
2022-11-30T15:45:15.237Z,0.78
2022-11-30T15:47:45.628Z,0.80
2022-11-30T15:50:41.862Z,0.85
2022-11-30T15:53:29.553Z,0.71
2022-11-30T15:55:59.212Z,0.82
2022-11-30T15:58:32.042Z,0.79
2022-11-30T16:01:06.125Z,0.77
2022-11-30T16:03:36.352Z,0.83
2022-11-30T16:06:06.602Z,1.17
2022-11-30T16:08:34.719Z,0.99
2022-11-30T16:11:07.815Z,1.03
2022-11-30T16:13:37.978Z,0.84
2022-11-30T16:16:13.948Z,0.87
2022-11-30T16:18:42.328Z,0.86
2022-11-30T16:21:13.791Z,0.85
2022-11-30T16:23:41.839Z,0.79
2022-11-30T16:26:23.013Z,0.80
2022-11-30T16:28:59.298Z,0.77
2022-11-30T16:31:27.741Z,0.37
2022-11-30T16:33:55.855Z,0.71
2022-11-30T16:36:24.889Z,0.40
2022-11-30T16:38:54.635Z,0.71
2022-11-30T16:41:25.218Z,0.68
2022-11-30T16:43:55.541Z,0.68
2022-11-30T16:46:27.685Z,0.68
2022-11-30T16:48:56.699Z,0.45
2022-11-30T16:51:30.999Z,0.52
2022-11-30T16:53:59.731Z,0.59
2022-11-30T16:56:28.500Z,0.42
2022-11-30T16:58:56.809Z,0.57
2022-11-30T17:01:35.522Z,0.56
2022-11-30T17:04:08.609Z,0.53
2022-11-30T17:06:37.021Z,0.55
2022-11-30T17:09:05.992Z,0.32
2022-11-30T17:11:38.401Z,0.57
2022-11-30T17:14:07.317Z,0.55
2022-11-30T17:16:37.114Z,0.50
2022-11-30T17:19:05.518Z,0.54
2022-11-30T17:21:35.598Z,0.54
2022-11-30T17:24:04.908Z,0.20
2022-11-30T17:26:34.298Z,0.56
2022-11-30T17:29:02.434Z,0.54
2022-11-30T17:31:32.427Z,0.53
2022-11-30T17:34:04.046Z,0.50
2022-11-30T17:36:32.378Z,0.50
2022-11-30T17:39:00.493Z,0.42
2022-11-30T17:41:30.999Z,0.45
2022-11-30T17:43:59.079Z,0.42
2022-11-30T17:46:27.553Z,0.41
2022-11-30T17:48:56.729Z,0.41
2022-11-30T17:51:27.018Z,0.43
2022-11-30T17:53:55.380Z,0.46
2022-11-30T17:56:26.938Z,0.53
2022-11-30T17:58:55.038Z,0.49
2022-11-30T18:01:25.451Z,0.44
2022-11-30T18:03:54.957Z,0.20
2022-11-30T18:06:23.860Z,0.51
2022-11-30T18:08:53.389Z,0.48
2022-11-30T18:11:24.717Z,0.54
2022-11-30T18:13:55.114Z,0.60
2022-11-30T18:16:26.388Z,0.59
2022-11-30T18:18:56.367Z,0.43
2022-11-30T18:21:26.063Z,0.47
2022-11-30T18:23:55.835Z,0.56
2022-11-30T18:26:28.956Z,0.57
2022-11-30T18:28:59.277Z,0.33
2022-11-30T18:31:28.713Z,0.50
2022-11-30T18:33:57.750Z,0.40
2022-11-30T18:36:26.841Z,0.49
2022-11-30T18:38:56.758Z,0.57
2022-11-30T18:41:26.415Z,0.57
2022-11-30T18:43:54.768Z,0.54
2022-11-30T18:46:23.665Z,0.57
2022-11-30T18:48:52.896Z,0.61
2022-11-30T18:51:23.483Z,0.55
2022-11-30T18:53:57.535Z,0.54
2022-11-30T18:56:30.194Z,0.62
2022-11-30T18:58:59.401Z,0.59
2022-11-30T19:01:33.583Z,0.54
2022-11-30T19:04:03.426Z,0.58
2022-11-30T19:06:34.007Z,0.26
2022-11-30T19:09:05.761Z,0.46
2022-11-30T19:11:36.116Z,0.48
2022-11-30T19:14:08.248Z,0.56
2022-11-30T19:16:39.907Z,0.53
2022-11-30T19:19:10.263Z,0.47
2022-11-30T19:21:38.673Z,0.53
2022-11-30T19:24:07.751Z,0.57
2022-11-30T19:26:40.044Z,0.60
2022-11-30T19:29:08.920Z,0.57
2022-11-30T19:31:37.282Z,-0.33
2022-11-30T19:34:11.962Z,0.26
2022-11-30T19:36:41.907Z,0.46
2022-11-30T19:39:11.358Z,0.56
2022-11-30T19:41:41.189Z,0.62
2022-11-30T19:44:14.911Z,0.45
2022-11-30T19:46:43.809Z,0.31
2022-11-30T19:49:14.416Z,0.54
2022-11-30T19:51:43.095Z,0.13
2022-11-30T19:54:11.438Z,0.39
2022-11-30T19:56:42.813Z,0.57
2022-11-30T19:59:11.261Z,0.58
2022-11-30T20:01:39.759Z,0.52
2022-11-30T20:04:09.450Z,0.53
2022-11-30T20:06:39.460Z,0.16
2022-11-30T20:09:09.259Z,0.52
2022-11-30T20:11:38.575Z,-0.39
2022-11-30T20:14:08.195Z,-0.49
2022-11-30T20:16:37.294Z,0.44
2022-11-30T20:19:05.714Z,0.38
2022-11-30T20:21:36.506Z,-0.35
2022-11-30T20:24:06.791Z,-0.26
2022-11-30T20:26:36.775Z,-0.61
2022-11-30T20:29:08.738Z,-0.09
2022-11-30T20:31:38.506Z,0.10
2022-11-30T20:34:08.110Z,0.42
2022-11-30T20:36:37.389Z,0.50
2022-11-30T20:39:05.935Z,-0.42
2022-11-30T20:41:34.888Z,-0.37
2022-11-30T20:44:04.662Z,-0.46
2022-11-30T20:46:36.821Z,-0.56
2022-11-30T20:49:14.382Z,-0.07
2022-11-30T20:51:42.990Z,0.52
2022-11-30T20:54:12.403Z,0.44
2022-11-30T20:56:41.597Z,0.56
2022-11-30T20:59:14.720Z,0.53
2022-11-30T21:01:47.096Z,0.57
2022-11-30T21:04:15.338Z,0.57
2022-11-30T21:06:45.661Z,0.58
2022-11-30T21:09:14.987Z,0.41
2022-11-30T21:11:43.601Z,0.32
2022-11-30T21:14:12.553Z,0.50
2022-11-30T21:16:41.600Z,0.48
2022-11-30T21:19:12.237Z,0.54
2022-11-30T21:21:40.665Z,0.57
2022-11-30T21:24:10.406Z,0.54
2022-11-30T21:26:40.785Z,0.62
2022-11-30T21:29:13.732Z,0.59
2022-11-30T21:31:42.660Z,0.33
2022-11-30T21:34:12.371Z,0.54
2022-11-30T21:36:41.126Z,0.57
2022-11-30T21:39:10.861Z,0.52
2022-11-30T21:41:41.516Z,0.17
2022-11-30T21:44:13.616Z,0.39
2022-11-30T21:46:45.660Z,0.61
2022-11-30T21:49:16.542Z,-0.31
2022-11-30T21:51:45.159Z,0.61
2022-11-30T21:54:14.858Z,0.58
2022-11-30T21:56:44.835Z,0.30
2022-11-30T21:59:15.843Z,0.61
2022-11-30T22:01:45.743Z,0.14
2022-11-30T22:04:16.353Z,0.58
2022-11-30T22:06:46.140Z,0.61
2022-11-30T22:09:17.317Z,-0.10
2022-11-30T22:11:48.323Z,0.59
2022-11-30T22:14:18.146Z,-0.37
2022-11-30T22:16:46.998Z,-0.23
2022-11-30T22:19:17.192Z,0.52
2022-11-30T22:21:49.917Z,0.49
2022-11-30T22:24:19.029Z,0.57
2022-11-30T22:26:49.244Z,0.50
2022-11-30T22:29:19.574Z,0.57
2022-11-30T22:31:50.547Z,0.47
2022-11-30T22:34:20.615Z,0.56
2022-11-30T22:36:49.707Z,0.47
2022-11-30T22:39:20.449Z,0.53
2022-11-30T22:41:55.559Z,0.56
2022-11-30T22:44:25.745Z,-0.02
2022-11-30T22:46:54.506Z,0.54
2022-11-30T22:49:24.441Z,0.39
2022-11-30T22:51:53.542Z,0.53
2022-11-30T22:54:24.604Z,0.57
2022-11-30T22:56:54.459Z,0.59
2022-11-30T22:59:23.519Z,-0.95
2022-11-30T23:01:52.512Z,0.14
2022-11-30T23:04:23.680Z,0.57
2022-11-30T23:06:54.641Z,0.60
2022-11-30T23:09:24.727Z,0.59
2022-11-30T23:11:54.081Z,0.61
2022-11-30T23:14:22.710Z,0.62
2022-11-30T23:16:51.484Z,0.59
2022-11-30T23:19:20.096Z,0.63
2022-11-30T23:21:50.459Z,0.66
2022-11-30T23:24:21.732Z,0.54
2022-11-30T23:26:51.262Z,0.64
2022-11-30T23:29:19.792Z,0.64
2022-11-30T23:31:49.159Z,0.63
2022-11-30T23:34:21.224Z,0.33
2022-11-30T23:36:50.579Z,0.63
2022-11-30T23:39:21.262Z,0.63
2022-11-30T23:41:50.292Z,0.09
2022-11-30T23:44:18.891Z,0.56
2022-11-30T23:46:47.496Z,0.03
2022-11-30T23:49:16.104Z,-0.05
2022-11-30T23:51:44.709Z,0.52
2022-11-30T23:54:13.002Z,0.71
2022-11-30T23:56:42.848Z,0.65
2022-11-30T23:59:10.874Z,0.67
